Berta — V2BQ6 — position and weather

sailwx.info

Track history (hours):
 
Tides and Currents Weather Stations Pressure Air Temp Water Temp Dewpoint Dewpoint Depression Visibility Wind Speed Wind Dir Waves Ship Positions

Berta

Last reported at 2015-Jan-28 09:22 UTC. Time now 2015-Jan-31 22:37 UTC.
Position N 58°29' E 005°09'.

Length 119 m; draft 6.1 m.

Type: Cargo ship. MMSI: 304586000.

Date/timePositionNaut miles runAvg speedWind from/ knotsBaromVisibWave heightAir tempDewpointWater temp
2015-Jan-28 09:22N 58°29' E 005°09'1112.9
2015-Jan-28 08:29N 58°20' E 005°23'1513.0
2015-Jan-28 07:19N 58°06' E 005°33'15113.7
2015-Jan-27 20:20N 55°41' E 006°44'1113.9
2015-Jan-27 19:33N 55°30' E 006°50'1414.0
2015-Jan-27 18:34N 55°17' E 006°56'1413.9
2015-Jan-27 17:33N 55°04' E 007°03'1413.8
2015-Jan-27 16:34N 54°50' E 007°11'1313.1
2015-Jan-27 15:34N 54°38' E 007°19'1212.3
2015-Jan-27 14:33N 54°27' E 007°27'1211.8
2015-Jan-27 13:33N 54°16' E 007°35'1111.3
2015-Jan-27 12:33N 54°08' E 007°49'1212.4
2015-Jan-27 11:34N 54°01' E 008°07'1414.1
2015-Jan-27 10:33N 53°59' E 008°30'1616.1
2015-Jan-27 09:33N 53°51' E 008°54'1514.5
2015-Jan-27 08:34N 53°51' E 009°19'1413.8
2015-Jan-27 07:33N 53°40' E 009°31'1110.7
2015-Jan-27 06:34N 53°34' E 009°46'7 6.8
2015-Jan-27 05:33N 53°31' E 009°56'0 0.3
2015-Jan-27 04:34N 53°31' E 009°56'0 0.0
2015-Jan-27 03:33N 53°31' E 009°56'0 0.0
2015-Jan-27 02:34N 53°31' E 009°56'0 0.0
2015-Jan-27 01:33N 53°31' E 009°56'0 0.0
2015-Jan-27 00:33N 53°31' E 009°56'0 0.0
2015-Jan-26 23:33N 53°31' E 009°56'0 0.0
2015-Jan-26 22:33N 53°31' E 009°56'2 1.9
2015-Jan-26 21:34N 53°32' E 009°56'1 0.9
2015-Jan-26 20:34N 53°32' E 009°54'0 0.0
2015-Jan-26 19:33N 53°32' E 009°54'0 0.0
2015-Jan-26 18:33N 53°32' E 009°54'0 0.0
2015-Jan-26 17:33N 53°32' E 009°54'0 0.0
2015-Jan-26 16:34N 53°32' E 009°54'0 0.0
2015-Jan-26 15:34N 53°32' E 009°54'0 0.0
2015-Jan-26 14:33N 53°32' E 009°54'0 0.0
2015-Jan-26 13:34N 53°32' E 009°54'0 0.0
2015-Jan-26 12:34N 53°32' E 009°54'1 0.6
2015-Jan-26 11:33N 53°32' E 009°55'0 0.0
2015-Jan-26 10:33N 53°32' E 009°55'0 0.0
2015-Jan-26 09:33N 53°32' E 009°55'0 0.0
2015-Jan-26 08:33N 53°32' E 009°55'0 0.0
2015-Jan-26 07:33N 53°32' E 009°55'8 8.2
2015-Jan-26 06:33N 53°34' E 009°41'1313.4
2015-Jan-26 05:33N 53°44' E 009°26'1313.4
2015-Jan-26 04:33N 53°53' E 009°09'1413.8
2015-Jan-26 03:33N 53°51' E 008°46'1413.8
2015-Jan-26 02:34N 53°59' E 008°27'1313.2
2015-Jan-26 01:34N 53°60' E 008°05'1413.7
2015-Jan-26 00:33N 54°06' E 007°44'1312.8
2015-Jan-25 23:33N 54°16' E 007°29'1312.8
2015-Jan-25 22:33N 54°28' E 007°23'1312.8
2015-Jan-25 21:33N 54°40' E 007°15'1312.6
2015-Jan-25 20:33N 54°52' E 007°09'1212.0
2015-Jan-25 19:33N 55°03' E 007°02'1212.2
2015-Jan-25 18:33N 55°15' E 006°55'1212.1
2015-Jan-25 17:33N 55°27' E 006°49'1612.4
2015-Jan-25 16:17N 55°41' E 006°40'  
2015-Jan-22 23:10N 62°58' E 007°44'14 6.8
2015-Jan-22 21:04N 63°12' E 007°51'2413.6
2015-Jan-22 19:20N 63°25' E 008°35'316 8.5
2015-Jan-21 06:20N 58°24' E 005°17'1215.4
2015-Jan-21 05:33N 58°14' E 005°29'16014.5
2015-Jan-20 18:28N 55°39' E 006°46'1414.9
2015-Jan-20 17:33N 55°26' E 006°52'1514.6
2015-Jan-20 16:33N 55°12' E 006°59'1515.2
2015-Jan-20 15:33N 54°57' E 007°07'1515.3
2015-Jan-20 14:33N 54°43' E 007°16'1515.4
2015-Jan-20 13:33N 54°28' E 007°25'1515.3
2015-Jan-20 12:33N 54°14' E 007°35'1414.3
2015-Jan-20 11:33N 54°06' E 007°55'1413.6
2015-Jan-20 10:34N 54°00' E 008°16'1313.1
2015-Jan-20 09:33N 53°57' E 008°38'1110.8
2015-Jan-20 08:34N 53°50' E 008°52'1413.6
2015-Jan-20 07:33N 53°53' E 009°15'1616.0
2015-Jan-20 06:33N 53°40' E 009°31'1212.2
2015-Jan-20 05:32N 53°33' E 009°49'5 5.3
2015-Jan-20 04:31N 53°32' E 009°58'0 0.0
2015-Jan-20 03:22N 53°32' E 009°58'0 0.0
2015-Jan-20 02:19N 53°32' E 009°58'0 0.0
2015-Jan-20 01:19N 53°32' E 009°58'0 0.0
2015-Jan-20 00:31N 53°32' E 009°58'0 0.0
2015-Jan-19 23:31N 53°32' E 009°58'0 0.0
2015-Jan-19 22:31N 53°32' E 009°58'0 0.0
2015-Jan-19 21:31N 53°32' E 009°58'0 0.0
2015-Jan-19 20:31N 53°32' E 009°58'0 0.0
2015-Jan-19 19:33N 53°32' E 009°58'0 0.0
2015-Jan-19 18:33N 53°32' E 009°58'0 0.0
2015-Jan-19 17:33N 53°32' E 009°58'0 0.0
2015-Jan-19 16:33N 53°32' E 009°58'0 0.2
2015-Jan-19 15:33N 53°32' E 009°57'2 2.1
2015-Jan-19 14:33N 53°30' E 009°56'0 0.0
2015-Jan-19 13:33N 53°30' E 009°56'0 0.0
2015-Jan-19 12:33N 53°30' E 009°56'0 0.0
2015-Jan-19 11:33N 53°30' E 009°56'0 0.0
2015-Jan-19 10:33N 53°30' E 009°56'0 0.0
2015-Jan-19 09:33N 53°30' E 009°56'2 2.3
2015-Jan-19 08:33N 53°32' E 009°55'0 0.0
2015-Jan-19 07:33N 53°32' E 009°55'0 0.0
2015-Jan-19 06:33N 53°32' E 009°55'0 0.0
2015-Jan-19 05:33N 53°32' E 009°55'3 2.7
2015-Jan-19 04:33N 53°33' E 009°50'8 7.8
2015-Jan-19 03:33N 53°35' E 009°38'1110.7
2015-Jan-19 02:33N 53°44' E 009°27'1110.6
2015-Jan-19 01:34N 53°52' E 009°17'1010.2
2015-Jan-19 00:33N 53°51' E 008°59'1111.1
2015-Jan-18 23:33N 53°54' E 008°41'1312.6
2015-Jan-18 22:33N 53°59' E 008°22'1212.2
2015-Jan-18 21:33N 54°01' E 008°01'1212.1
2015-Jan-18 20:33N 54°07' E 007°43'1111.1
2015-Jan-18 19:33N 54°15' E 007°30'1211.6
2015-Jan-18 18:33N 54°26' E 007°24'1111.5
2015-Jan-18 17:33N 54°37' E 007°17'1311.9
2015-Jan-18 16:27N 54°49' E 007°11'  
Track history (hours):
 
Tides and Currents Weather Stations Pressure Air Temp Water Temp Dewpoint Dewpoint Depression Visibility Wind Speed Wind Dir Waves Ship Positions

Berta

Last reported at 2015-Jan-28 09:22 UTC. Time now 2015-Jan-31 22:37 UTC.
Position N 58°29' E 005°09'.

Length 119 m; draft 6.1 m.

Type: Cargo ship. MMSI: 304586000.

Date/timePositionNaut miles runAvg speedWind from/ knotsBaromVisibWave heightAir tempDewpointWater temp
2015-Jan-28 09:22N 58°29' E 005°09'1112.9
2015-Jan-28 08:29N 58°20' E 005°23'1513.0
2015-Jan-28 07:19N 58°06' E 005°33'15113.7
2015-Jan-27 20:20N 55°41' E 006°44'1113.9
2015-Jan-27 19:33N 55°30' E 006°50'1414.0
2015-Jan-27 18:34N 55°17' E 006°56'1413.9
2015-Jan-27 17:33N 55°04' E 007°03'1413.8
2015-Jan-27 16:34N 54°50' E 007°11'1313.1
2015-Jan-27 15:34N 54°38' E 007°19'1212.3
2015-Jan-27 14:33N 54°27' E 007°27'1211.8
2015-Jan-27 13:33N 54°16' E 007°35'1111.3
2015-Jan-27 12:33N 54°08' E 007°49'1212.4
2015-Jan-27 11:34N 54°01' E 008°07'1414.1
2015-Jan-27 10:33N 53°59' E 008°30'1616.1
2015-Jan-27 09:33N 53°51' E 008°54'1514.5
2015-Jan-27 08:34N 53°51' E 009°19'1413.8
2015-Jan-27 07:33N 53°40' E 009°31'1110.7
2015-Jan-27 06:34N 53°34' E 009°46'7 6.8
2015-Jan-27 05:33N 53°31' E 009°56'0 0.3
2015-Jan-27 04:34N 53°31' E 009°56'0 0.0
2015-Jan-27 03:33N 53°31' E 009°56'0 0.0
2015-Jan-27 02:34N 53°31' E 009°56'0 0.0
2015-Jan-27 01:33N 53°31' E 009°56'0 0.0
2015-Jan-27 00:33N 53°31' E 009°56'0 0.0
2015-Jan-26 23:33N 53°31' E 009°56'0 0.0
2015-Jan-26 22:33N 53°31' E 009°56'2 1.9
2015-Jan-26 21:34N 53°32' E 009°56'1 0.9
2015-Jan-26 20:34N 53°32' E 009°54'0 0.0
2015-Jan-26 19:33N 53°32' E 009°54'0 0.0
2015-Jan-26 18:33N 53°32' E 009°54'0 0.0
2015-Jan-26 17:33N 53°32' E 009°54'0 0.0
2015-Jan-26 16:34N 53°32' E 009°54'0 0.0
2015-Jan-26 15:34N 53°32' E 009°54'0 0.0
2015-Jan-26 14:33N 53°32' E 009°54'0 0.0
2015-Jan-26 13:34N 53°32' E 009°54'0 0.0
2015-Jan-26 12:34N 53°32' E 009°54'1 0.6
2015-Jan-26 11:33N 53°32' E 009°55'0 0.0
2015-Jan-26 10:33N 53°32' E 009°55'0 0.0
2015-Jan-26 09:33N 53°32' E 009°55'0 0.0
2015-Jan-26 08:33N 53°32' E 009°55'0 0.0
2015-Jan-26 07:33N 53°32' E 009°55'8 8.2
2015-Jan-26 06:33N 53°34' E 009°41'1313.4
2015-Jan-26 05:33N 53°44' E 009°26'1313.4
2015-Jan-26 04:33N 53°53' E 009°09'1413.8
2015-Jan-26 03:33N 53°51' E 008°46'1413.8
2015-Jan-26 02:34N 53°59' E 008°27'1313.2
2015-Jan-26 01:34N 53°60' E 008°05'1413.7
2015-Jan-26 00:33N 54°06' E 007°44'1312.8
2015-Jan-25 23:33N 54°16' E 007°29'1312.8
2015-Jan-25 22:33N 54°28' E 007°23'1312.8
2015-Jan-25 21:33N 54°40' E 007°15'1312.6
2015-Jan-25 20:33N 54°52' E 007°09'1212.0
2015-Jan-25 19:33N 55°03' E 007°02'1212.2
2015-Jan-25 18:33N 55°15' E 006°55'1212.1
2015-Jan-25 17:33N 55°27' E 006°49'1612.4
2015-Jan-25 16:17N 55°41' E 006°40'  
2015-Jan-22 23:10N 62°58' E 007°44'14 6.8
2015-Jan-22 21:04N 63°12' E 007°51'2413.6
2015-Jan-22 19:20N 63°25' E 008°35'316 8.5
2015-Jan-21 06:20N 58°24' E 005°17'1215.4
2015-Jan-21 05:33N 58°14' E 005°29'16014.5
2015-Jan-20 18:28N 55°39' E 006°46'1414.9
2015-Jan-20 17:33N 55°26' E 006°52'1514.6
2015-Jan-20 16:33N 55°12' E 006°59'1515.2
2015-Jan-20 15:33N 54°57' E 007°07'1515.3
2015-Jan-20 14:33N 54°43' E 007°16'1515.4
2015-Jan-20 13:33N 54°28' E 007°25'1515.3
2015-Jan-20 12:33N 54°14' E 007°35'1414.3
2015-Jan-20 11:33N 54°06' E 007°55'1413.6
2015-Jan-20 10:34N 54°00' E 008°16'1313.1
2015-Jan-20 09:33N 53°57' E 008°38'1110.8
2015-Jan-20 08:34N 53°50' E 008°52'1413.6
2015-Jan-20 07:33N 53°53' E 009°15'1616.0
2015-Jan-20 06:33N 53°40' E 009°31'1212.2
2015-Jan-20 05:32N 53°33' E 009°49'5 5.3
2015-Jan-20 04:31N 53°32' E 009°58'0 0.0
2015-Jan-20 03:22N 53°32' E 009°58'0 0.0
2015-Jan-20 02:19N 53°32' E 009°58'0 0.0
2015-Jan-20 01:19N 53°32' E 009°58'0 0.0
2015-Jan-20 00:31N 53°32' E 009°58'0 0.0
2015-Jan-19 23:31N 53°32' E 009°58'0 0.0
2015-Jan-19 22:31N 53°32' E 009°58'0 0.0
2015-Jan-19 21:31N 53°32' E 009°58'0 0.0
2015-Jan-19 20:31N 53°32' E 009°58'0 0.0
2015-Jan-19 19:33N 53°32' E 009°58'0 0.0
2015-Jan-19 18:33N 53°32' E 009°58'0 0.0
2015-Jan-19 17:33N 53°32' E 009°58'0 0.0
2015-Jan-19 16:33N 53°32' E 009°58'0 0.2
2015-Jan-19 15:33N 53°32' E 009°57'2 2.1
2015-Jan-19 14:33N 53°30' E 009°56'0 0.0
2015-Jan-19 13:33N 53°30' E 009°56'0 0.0
2015-Jan-19 12:33N 53°30' E 009°56'0 0.0
2015-Jan-19 11:33N 53°30' E 009°56'0 0.0
2015-Jan-19 10:33N 53°30' E 009°56'0 0.0
2015-Jan-19 09:33N 53°30' E 009°56'2 2.3
2015-Jan-19 08:33N 53°32' E 009°55'0 0.0
2015-Jan-19 07:33N 53°32' E 009°55'0 0.0
2015-Jan-19 06:33N 53°32' E 009°55'0 0.0
2015-Jan-19 05:33N 53°32' E 009°55'3 2.7
2015-Jan-19 04:33N 53°33' E 009°50'8 7.8
2015-Jan-19 03:33N 53°35' E 009°38'1110.7
2015-Jan-19 02:33N 53°44' E 009°27'1110.6
2015-Jan-19 01:34N 53°52' E 009°17'1010.2
2015-Jan-19 00:33N 53°51' E 008°59'1111.1
2015-Jan-18 23:33N 53°54' E 008°41'1312.6
2015-Jan-18 22:33N 53°59' E 008°22'1212.2
2015-Jan-18 21:33N 54°01' E 008°01'1212.1
2015-Jan-18 20:33N 54°07' E 007°43'1111.1
2015-Jan-18 19:33N 54°15' E 007°30'1211.6
2015-Jan-18 18:33N 54°26' E 007°24'1111.5
2015-Jan-18 17:33N 54°37' E 007°17'1311.9
2015-Jan-18 16:27N 54°49' E 007°11'  

Dump ship's entire track history